Time,TemperatureF,DewpointF,PressureIn,WindDirection,WindDirectionDegrees,WindSpeedMPH,WindSpeedGustMPH,Humidity,HourlyPrecipIn,Conditions,Clouds,dailyrainin,SoftwareType,DateUTC
2013-04-15 00:00:00,58.8,53.7,29.74,North,0,0.0,0.0,83,0.00,,,0.00,WUHU21623XXSP,2013-04-15 05:00:00,
2013-04-15 00:05:00,58.8,54.0,29.73,North,0,0.0,0.0,84,0.00,,,0.00,WUHU21623XXSP,2013-04-15 05:05:00,
2013-04-15 00:10:00,58.8,54.0,29.73,North,0,0.0,0.0,84,0.00,,,0.00,WUHU21623XXSP,2013-04-15 05:10:00,
2013-04-15 00:15:00,58.8,54.0,29.73,North,0,0.0,0.0,84,0.00,,,0.00,WUHU21623XXSP,2013-04-15 05:15:00,
2013-04-15 00:20:00,58.8,54.3,29.74,North,0,0.0,0.0,85,0.00,,,0.00,WUHU21623XXSP,2013-04-15 05:20:00,
2013-04-15 00:25:00,58.8,54.3,29.74,North,0,0.0,0.0,85,0.00,,,0.00,WUHU21623XXSP,2013-04-15 05:25:00,
2013-04-15 00:30:00,58.8,54.3,29.74,North,0,0.0,0.0,85,0.00,,,0.00,WUHU21623XXSP,2013-04-15 05:30:00,
2013-04-15 00:35:00,58.8,54.3,29.74,North,0,0.0,0.0,85,0.00,,,0.00,WUHU21623XXSP,2013-04-15 05:35:00,
2013-04-15 00:40:00,58.8,54.3,29.75,North,0,0.0,0.0,85,0.00,,,0.00,WUHU21623XXSP,2013-04-15 05:40:00,
2013-04-15 00:45:00,58.8,54.6,29.75,North,0,0.0,0.0,86,0.00,,,0.00,WUHU21623XXSP,2013-04-15 05:45:00,
2013-04-15 00:50:00,58.8,54.6,29.75,North,0,0.0,0.0,86,0.00,,,0.00,WUHU21623XXSP,2013-04-15 05:50:00,
2013-04-15 00:55:00,58.8,54.6,29.75,North,0,0.0,0.0,86,0.00,,,0.00,WUHU21623XXSP,2013-04-15 05:55:00,
2013-04-15 01:00:00,58.8,54.6,29.74,North,0,0.0,0.0,86,0.00,,,0.00,WUHU21623XXSP,2013-04-15 06:00:00,
2013-04-15 01:05:00,58.8,54.6,29.75,North,0,0.0,0.0,86,0.00,,,0.00,WUHU21623XXSP,2013-04-15 06:05:00,
2013-04-15 01:10:00,58.8,54.6,29.75,North,0,0.0,0.0,86,0.00,,,0.00,WUHU21623XXSP,2013-04-15 06:10:00,
2013-04-15 01:15:00,58.8,54.6,29.74,North,0,0.0,0.0,86,0.00,,,0.00,WUHU21623XXSP,2013-04-15 06:15:00,
2013-04-15 01:20:00,58.8,54.6,29.74,North,0,0.0,0.0,86,0.00,,,0.00,WUHU21623XXSP,2013-04-15 06:20:00,
2013-04-15 01:25:00,58.8,54.3,29.75,North,0,0.0,0.0,85,0.00,,,0.00,WUHU21623XXSP,2013-04-15 06:25:00,
2013-04-15 01:30:00,58.8,54.3,29.76,North,0,0.0,0.0,85,0.00,,,0.00,WUHU21623XXSP,2013-04-15 06:30:00,
2013-04-15 01:35:00,58.6,54.1,29.75,North,0,0.0,0.0,85,0.00,,,0.00,WUHU21623XXSP,2013-04-15 06:35:00,
2013-04-15 01:40:00,58.5,54.0,29.76,North,0,0.0,0.0,85,0.00,,,0.00,WUHU21623XXSP,2013-04-15 06:40:00,
2013-04-15 01:45:00,58.5,54.0,29.76,North,0,0.0,0.0,85,0.00,,,0.00,WUHU21623XXSP,2013-04-15 06:45:00,
2013-04-15 01:50:00,58.3,53.8,29.76,North,0,0.0,0.0,85,0.00,,,0.00,WUHU21623XXSP,2013-04-15 06:50:00,
2013-04-15 01:55:00,58.3,53.8,29.76,North,0,0.0,0.0,85,0.00,,,0.00,WUHU21623XXSP,2013-04-15 06:55:00,
2013-04-15 02:00:00,58.3,53.8,29.76,North,0,0.0,0.0,85,0.00,,,0.00,WUHU21623XXSP,2013-04-15 07:00:00,
2013-04-15 02:04:00,58.1,53.6,29.77,North,0,0.0,0.0,85,0.00,,,0.00,WUHU21623XXSP,2013-04-15 07:04:00,
2013-04-15 02:06:00,58.1,53.6,29.77,North,0,0.0,0.0,85,0.00,,,0.00,WUHU21623XXSP,2013-04-15 07:06:00,
2013-04-15 02:08:00,58.1,53.6,29.77,North,0,0.0,0.0,85,0.00,,,0.00,WUHU21623XXSP,2013-04-15 07:08:00,
2013-04-15 02:13:00,58.1,53.6,29.77,North,0,0.0,0.0,85,0.00,,,0.00,WUHU21623XXSP,2013-04-15 07:13:00,
2013-04-15 02:21:00,57.9,53.4,29.76,North,0,0.0,0.0,85,0.00,,,0.00,WUHU21623XXSP,2013-04-15 07:21:00,
2013-04-15 02:23:00,57.9,53.4,29.76,North,0,0.0,0.0,85,0.00,,,0.00,WUHU21623XXSP,2013-04-15 07:23:00,
2013-04-15 02:28:00,57.9,53.4,29.75,North,0,0.0,0.0,85,0.00,,,0.00,WUHU21623XXSP,2013-04-15 07:28:00,
2013-04-15 02:41:00,57.7,53.2,29.75,North,0,0.0,0.0,85,0.00,,,0.00,WUHU21623XXSP,2013-04-15 07:41:00,
2013-04-15 02:46:00,57.7,53.2,29.76,North,0,0.0,0.0,85,0.00,,,0.00,WUHU21623XXSP,2013-04-15 07:46:00,
2013-04-15 02:49:00,57.7,53.2,29.76,North,0,0.0,0.0,85,0.00,,,0.00,WUHU21623XXSP,2013-04-15 07:49:00,
2013-04-15 02:54:00,57.6,53.1,29.76,North,0,0.0,0.0,85,0.00,,,0.00,WUHU21623XXSP,2013-04-15 07:54:00,
2013-04-15 02:59:00,57.4,53.1,29.76,North,0,0.0,0.0,85,0.00,,,0.00,WUHU21623XXSP,2013-04-15 07:59:00,
2013-04-15 03:04:00,57.4,52.9,29.78,North,0,0.0,0.0,85,0.00,,,0.00,WUHU21623XXSP,2013-04-15 08:04:00,
2013-04-15 03:09:00,57.4,52.9,29.77,North,0,0.0,0.0,85,0.00,,,0.00,WUHU21623XXSP,2013-04-15 08:09:00,
2013-04-15 03:14:00,57.4,52.9,29.78,North,0,0.0,0.0,85,0.00,,,0.00,WUHU21623XXSP,2013-04-15 08:14:00,
2013-04-15 03:20:00,57.4,52.9,29.78,North,0,0.0,0.0,85,0.00,,,0.00,WUHU21623XXSP,2013-04-15 08:20:00,
2013-04-15 03:25:00,57.4,52.9,29.78,North,0,0.0,0.0,85,0.00,,,0.00,WUHU21623XXSP,2013-04-15 08:25:00,
2013-04-15 03:30:00,57.2,52.7,29.78,North,0,0.0,0.0,85,0.00,,,0.00,WUHU21623XXSP,2013-04-15 08:30:00,
2013-04-15 03:35:00,57.0,52.2,29.77,North,0,0.0,0.0,84,0.00,,,0.00,WUHU21623XXSP,2013-04-15 08:35:00,
2013-04-15 03:38:00,57.0,52.2,29.77,North,0,0.0,0.0,84,0.00,,,0.00,WUHU21623XXSP,2013-04-15 08:38:00,
2013-04-15 03:40:00,57.0,52.2,29.78,North,0,0.0,0.0,84,0.00,,,0.00,WUHU21623XXSP,2013-04-15 08:40:00,
2013-04-15 03:46:00,57.0,52.2,29.78,North,0,0.0,0.0,84,0.00,,,0.00,WUHU21623XXSP,2013-04-15 08:46:00,
2013-04-15 03:48:00,57.0,52.2,29.78,North,0,0.0,0.0,84,0.00,,,0.00,WUHU21623XXSP,2013-04-15 08:48:00,
2013-04-15 03:53:00,56.8,52.0,29.78,North,0,0.0,0.0,84,0.00,,,0.00,WUHU21623XXSP,2013-04-15 08:53:00,
2013-04-15 03:56:00,56.8,52.0,29.79,North,0,0.0,0.0,84,0.00,,,0.00,WUHU21623XXSP,2013-04-15 08:56:00,
2013-04-15 04:01:00,56.8,52.0,29.79,North,0,0.0,0.0,84,0.00,,,0.00,WUHU21623XXSP,2013-04-15 09:01:00,
2013-04-15 04:06:00,56.8,52.0,29.80,North,0,0.0,0.0,84,0.00,,,0.00,WUHU21623XXSP,2013-04-15 09:06:00,
2013-04-15 04:11:00,56.8,52.0,29.80,North,0,0.0,0.0,84,0.00,,,0.00,WUHU21623XXSP,2013-04-15 09:11:00,
2013-04-15 04:16:00,56.7,52.0,29.80,North,0,0.0,0.0,84,0.00,,,0.00,WUHU21623XXSP,2013-04-15 09:16:00,
2013-04-15 04:21:00,56.7,51.8,29.81,North,0,0.0,0.0,84,0.00,,,0.00,WUHU21623XXSP,2013-04-15 09:21:00,
2013-04-15 04:26:00,56.5,51.8,29.81,North,0,0.0,0.0,84,0.00,,,0.00,WUHU21623XXSP,2013-04-15 09:26:00,
2013-04-15 04:31:00,56.5,51.7,29.82,North,0,0.0,0.0,84,0.00,,,0.00,WUHU21623XXSP,2013-04-15 09:31:00,
2013-04-15 04:36:00,56.5,51.7,29.81,North,0,0.0,0.0,84,0.00,,,0.00,WUHU21623XXSP,2013-04-15 09:36:00,
2013-04-15 04:41:00,56.5,51.7,29.81,North,0,0.0,0.0,84,0.00,,,0.00,WUHU21623XXSP,2013-04-15 09:41:00,
2013-04-15 04:46:00,56.5,51.7,29.82,North,0,0.0,0.0,84,0.00,,,0.00,WUHU21623XXSP,2013-04-15 09:46:00,
2013-04-15 04:51:00,56.5,51.7,29.83,North,0,0.0,0.0,84,0.00,,,0.00,WUHU21623XXSP,2013-04-15 09:51:00,
2013-04-15 04:56:00,56.5,51.7,29.82,North,0,0.0,0.0,84,0.00,,,0.00,WUHU21623XXSP,2013-04-15 09:56:00,
2013-04-15 05:01:00,56.5,51.7,29.82,North,0,0.0,0.0,84,0.00,,,0.00,WUHU21623XXSP,2013-04-15 10:01:00,
2013-04-15 05:06:00,56.5,51.7,29.82,North,0,0.0,0.0,84,0.00,,,0.00,WUHU21623XXSP,2013-04-15 10:06:00,
2013-04-15 05:11:00,56.5,51.7,29.82,North,0,0.0,0.0,84,0.00,,,0.00,WUHU21623XXSP,2013-04-15 10:11:00,
2013-04-15 05:16:00,56.3,51.5,29.82,North,0,0.0,0.0,84,0.00,,,0.00,WUHU21623XXSP,2013-04-15 10:16:00,
2013-04-15 05:22:00,56.1,51.3,29.83,North,0,0.0,0.0,84,0.00,,,0.00,WUHU21623XXSP,2013-04-15 10:22:00,
2013-04-15 05:27:00,56.1,51.3,29.82,North,0,0.0,0.0,84,0.00,,,0.00,WUHU21623XXSP,2013-04-15 10:27:00,
2013-04-15 05:32:00,55.9,51.1,29.83,North,0,0.0,0.0,84,0.00,,,0.00,WUHU21623XXSP,2013-04-15 10:32:00,
2013-04-15 05:37:00,55.9,51.1,29.83,North,0,0.0,0.0,84,0.00,,,0.00,WUHU21623XXSP,2013-04-15 10:37:00,
2013-04-15 05:42:00,55.8,51.1,29.83,North,0,0.0,0.0,85,0.00,,,0.00,WUHU21623XXSP,2013-04-15 10:42:00,
2013-04-15 05:47:00,55.6,51.1,29.82,North,0,0.0,0.0,85,0.00,,,0.00,WUHU21623XXSP,2013-04-15 10:47:00,
2013-04-15 05:52:00,55.2,50.7,29.84,North,0,0.0,0.0,85,0.00,,,0.00,WUHU21623XXSP,2013-04-15 10:52:00,
2013-04-15 05:57:00,55.2,50.7,29.84,North,0,0.0,0.0,85,0.00,,,0.00,WUHU21623XXSP,2013-04-15 10:57:00,
2013-04-15 06:02:00,55.0,50.2,29.83,North,0,0.0,0.0,84,0.00,,,0.00,WUHU21623XXSP,2013-04-15 11:02:00,
2013-04-15 06:08:00,54.9,50.1,29.84,North,0,0.0,0.0,84,0.00,,,0.00,WUHU21623XXSP,2013-04-15 11:08:00,
2013-04-15 06:13:00,54.7,49.9,29.84,North,0,0.0,0.0,84,0.00,,,0.00,WUHU21623XXSP,2013-04-15 11:13:00,
2013-04-15 06:18:00,54.5,49.7,29.84,North,0,0.0,0.0,84,0.00,,,0.00,WUHU21623XXSP,2013-04-15 11:18:00,
2013-04-15 06:23:00,54.5,49.7,29.85,North,0,0.0,0.0,84,0.00,,,0.00,WUHU21623XXSP,2013-04-15 11:23:00,
2013-04-15 06:28:00,54.3,49.5,29.85,North,0,0.0,0.0,84,0.00,,,0.00,WUHU21623XXSP,2013-04-15 11:28:00,
2013-04-15 06:33:00,54.1,49.4,29.84,North,0,0.0,0.0,84,0.00,,,0.00,WUHU21623XXSP,2013-04-15 11:33:00,
2013-04-15 06:38:00,54.0,49.2,29.84,North,0,0.0,0.0,84,0.00,,,0.00,WUHU21623XXSP,2013-04-15 11:38:00,
2013-04-15 06:43:00,53.8,49.0,29.84,North,0,0.0,0.0,84,0.00,,,0.00,WUHU21623XXSP,2013-04-15 11:43:00,
2013-04-15 06:48:00,53.8,49.4,29.84,North,0,0.0,0.0,85,0.00,,,0.00,WUHU21623XXSP,2013-04-15 11:48:00,
2013-04-15 06:53:00,53.4,49.0,29.86,North,0,0.0,0.0,85,0.00,,,0.00,WUHU21623XXSP,2013-04-15 11:53:00,
2013-04-15 06:58:00,53.4,49.0,29.89,North,0,0.0,0.0,85,0.00,,,0.00,WUHU21623XXSP,2013-04-15 11:58:00,
2013-04-15 07:03:00,53.2,48.8,29.88,North,0,0.0,0.0,85,0.00,,,0.00,WUHU21623XXSP,2013-04-15 12:03:00,
2013-04-15 07:09:00,53.2,48.8,29.88,North,0,0.0,0.0,85,0.00,,,0.00,WUHU21623XXSP,2013-04-15 12:09:00,
2013-04-15 07:14:00,52.9,48.2,29.89,North,0,0.0,0.0,84,0.00,,,0.00,WUHU21623XXSP,2013-04-15 12:14:00,
2013-04-15 07:19:00,52.9,48.2,29.88,North,0,0.0,0.0,84,0.00,,,0.00,WUHU21623XXSP,2013-04-15 12:19:00,
2013-04-15 07:24:00,52.5,48.0,29.88,North,0,0.0,0.0,84,0.00,,,0.00,WUHU21623XXSP,2013-04-15 12:24:00,
2013-04-15 07:29:00,52.5,47.5,29.87,North,0,0.0,0.0,83,0.00,,,0.00,WUHU21623XXSP,2013-04-15 12:29:00,
2013-04-15 07:34:00,52.7,47.8,29.87,North,0,0.0,0.0,84,0.00,,,0.00,WUHU21623XXSP,2013-04-15 12:34:00,
2013-04-15 07:40:00,52.7,48.0,29.87,North,0,0.0,0.0,84,0.00,,,0.00,WUHU21623XXSP,2013-04-15 12:40:00,
2013-04-15 07:45:00,52.7,48.0,29.88,North,0,0.0,0.0,84,0.00,,,0.00,WUHU21623XXSP,2013-04-15 12:45:00,
2013-04-15 07:50:00,52.5,47.8,29.88,North,0,0.0,0.0,84,0.00,,,0.00,WUHU21623XXSP,2013-04-15 12:50:00,
2013-04-15 07:55:00,52.5,47.8,29.88,North,0,0.0,0.0,84,0.00,,,0.00,WUHU21623XXSP,2013-04-15 12:55:00,
2013-04-15 08:00:00,52.5,47.8,29.89,North,0,0.0,0.0,84,0.00,,,0.00,WUHU21623XXSP,2013-04-15 13:00:00,
2013-04-15 08:05:00,52.9,48.5,29.89,North,0,0.0,0.0,85,0.00,,,0.00,WUHU21623XXSP,2013-04-15 13:05:00,
2013-04-15 08:10:00,53.2,48.8,29.88,North,0,0.0,0.0,85,0.00,,,0.00,WUHU21623XXSP,2013-04-15 13:10:00,
2013-04-15 08:16:00,53.2,48.5,29.87,North,0,0.0,0.0,84,0.00,,,0.00,WUHU21623XXSP,2013-04-15 13:16:00,
2013-04-15 08:21:00,53.2,48.5,29.87,North,0,0.0,0.0,84,0.00,,,0.00,WUHU21623XXSP,2013-04-15 13:21:00,
2013-04-15 08:26:00,53.2,48.2,29.86,North,0,0.0,0.0,83,0.00,,,0.00,WUHU21623XXSP,2013-04-15 13:26:00,
2013-04-15 08:31:00,52.9,47.9,29.86,North,0,0.0,0.0,83,0.00,,,0.00,WUHU21623XXSP,2013-04-15 13:31:00,
2013-04-15 08:37:00,53.2,48.5,29.86,North,0,0.0,0.0,84,0.00,,,0.00,WUHU21623XXSP,2013-04-15 13:37:00,
2013-04-15 08:42:00,53.4,48.7,29.86,North,0,0.0,0.0,84,0.00,,,0.00,WUHU21623XXSP,2013-04-15 13:42:00,
2013-04-15 08:47:00,53.4,48.7,29.85,North,0,0.0,0.0,84,0.00,,,0.00,WUHU21623XXSP,2013-04-15 13:47:00,
2013-04-15 08:52:00,53.8,49.0,29.86,North,0,0.0,0.0,84,0.00,,,0.00,WUHU21623XXSP,2013-04-15 13:52:00,
2013-04-15 08:57:00,53.8,49.0,29.85,North,0,0.0,0.0,84,0.00,,,0.00,WUHU21623XXSP,2013-04-15 13:57:00,
2013-04-15 09:02:00,53.8,49.0,29.85,North,0,0.0,0.0,84,0.00,,,0.00,WUHU21623XXSP,2013-04-15 14:02:00,
2013-04-15 09:07:00,54.1,49.2,29.84,North,0,0.0,0.0,84,0.00,,,0.00,WUHU21623XXSP,2013-04-15 14:07:00,
2013-04-15 09:12:00,54.3,49.2,29.84,North,0,0.0,0.0,83,0.00,,,0.00,WUHU21623XXSP,2013-04-15 14:12:00,
2013-04-15 09:17:00,54.7,49.4,29.84,North,0,0.0,0.0,83,0.00,,,0.00,WUHU21623XXSP,2013-04-15 14:17:00,
2013-04-15 09:22:00,54.7,49.3,29.85,North,0,0.0,0.0,81,0.00,,,0.00,WUHU21623XXSP,2013-04-15 14:22:00,
2013-04-15 09:27:00,54.7,48.9,29.85,North,0,0.0,0.0,81,0.00,,,0.00,WUHU21623XXSP,2013-04-15 14:27:00,
2013-04-15 09:32:00,54.7,48.9,29.84,North,0,0.0,0.0,81,0.00,,,0.00,WUHU21623XXSP,2013-04-15 14:32:00,
2013-04-15 09:37:00,55.0,49.1,29.85,North,0,0.0,0.0,81,0.00,,,0.00,WUHU21623XXSP,2013-04-15 14:37:00,
2013-04-15 09:42:00,55.0,49.0,29.85,North,0,0.0,0.0,80,0.00,,,0.00,WUHU21623XXSP,2013-04-15 14:42:00,
2013-04-15 09:47:00,55.2,49.1,29.85,North,0,0.0,0.0,80,0.00,,,0.00,WUHU21623XXSP,2013-04-15 14:47:00,
2013-04-15 09:53:00,55.4,49.1,29.86,North,0,0.0,0.0,79,0.00,,,0.00,WUHU21623XXSP,2013-04-15 14:53:00,
2013-04-15 09:58:00,55.8,49.1,29.86,North,0,0.0,0.0,79,0.00,,,0.00,WUHU21623XXSP,2013-04-15 14:58:00,
2013-04-15 10:03:00,55.9,49.5,29.86,North,0,0.0,0.0,79,0.00,,,0.00,WUHU21623XXSP,2013-04-15 15:03:00,
2013-04-15 10:08:00,55.9,49.1,29.87,North,0,0.0,0.0,78,0.00,,,0.00,WUHU21623XXSP,2013-04-15 15:08:00,
2013-04-15 10:13:00,56.1,49.3,29.86,North,0,0.0,0.0,78,0.00,,,0.00,WUHU21623XXSP,2013-04-15 15:13:00,
2013-04-15 10:18:00,56.1,49.3,29.86,North,0,0.0,0.0,78,0.00,,,0.00,WUHU21623XXSP,2013-04-15 15:18:00,
2013-04-15 10:23:00,56.3,49.5,29.85,North,0,0.0,0.0,78,0.00,,,0.00,WUHU21623XXSP,2013-04-15 15:23:00,
2013-04-15 10:28:00,56.8,49.3,29.84,North,0,0.0,0.0,76,0.00,,,0.00,WUHU21623XXSP,2013-04-15 15:28:00,
2013-04-15 10:33:00,57.2,49.5,29.86,North,0,0.0,0.0,76,0.00,,,0.00,WUHU21623XXSP,2013-04-15 15:33:00,
2013-04-15 10:38:00,57.6,49.6,29.86,North,0,0.0,0.0,75,0.00,,,0.00,WUHU21623XXSP,2013-04-15 15:38:00,
2013-04-15 10:43:00,57.9,49.6,29.86,North,0,0.0,0.0,74,0.00,,,0.00,WUHU21623XXSP,2013-04-15 15:43:00,
2013-04-15 10:48:00,58.3,49.6,29.86,North,0,0.0,0.0,73,0.00,,,0.00,WUHU21623XXSP,2013-04-15 15:48:00,
2013-04-15 10:54:00,59.2,49.8,29.86,North,0,0.0,0.0,71,0.00,,,0.00,WUHU21623XXSP,2013-04-15 15:54:00,
2013-04-15 10:59:00,59.5,49.4,29.86,North,0,0.0,0.0,69,0.00,,,0.00,WUHU21623XXSP,2013-04-15 15:59:00,
2013-04-15 11:04:00,59.5,49.4,29.87,North,0,0.0,0.0,69,0.00,,,0.00,WUHU21623XXSP,2013-04-15 16:04:00,
2013-04-15 11:09:00,58.8,48.6,29.87,North,0,0.0,0.0,67,0.00,,,0.00,WUHU21623XXSP,2013-04-15 16:09:00,
2013-04-15 11:14:00,58.8,47.9,29.88,North,0,0.0,0.0,67,0.00,,,0.00,WUHU21623XXSP,2013-04-15 16:14:00,
2013-04-15 11:19:00,58.1,47.3,29.87,North,0,0.0,0.0,67,0.00,,,0.00,WUHU21623XXSP,2013-04-15 16:19:00,
2013-04-15 11:24:00,58.3,47.3,29.87,North,0,0.0,0.0,68,0.00,,,0.00,WUHU21623XXSP,2013-04-15 16:24:00,
2013-04-15 11:29:00,58.8,48.3,29.87,North,0,0.0,0.0,68,0.00,,,0.00,WUHU21623XXSP,2013-04-15 16:29:00,
2013-04-15 11:34:00,59.0,48.5,29.87,North,0,0.0,0.0,68,0.00,,,0.00,WUHU21623XXSP,2013-04-15 16:34:00,
2013-04-15 11:39:00,59.4,48.4,29.87,North,0,0.0,0.0,67,0.00,,,0.00,WUHU21623XXSP,2013-04-15 16:39:00,
2013-04-15 11:45:00,59.5,47.8,29.87,North,0,0.0,0.0,65,0.00,,,0.00,WUHU21623XXSP,2013-04-15 16:45:00,
2013-04-15 11:50:00,59.5,47.8,29.88,North,0,0.0,0.0,65,0.00,,,0.00,WUHU21623XXSP,2013-04-15 16:50:00,
2013-04-15 11:55:00,59.2,47.8,29.88,North,0,0.0,0.0,66,0.00,,,0.00,WUHU21623XXSP,2013-04-15 16:55:00,
2013-04-15 12:00:00,59.2,47.8,29.88,North,0,0.0,0.0,66,0.00,,,0.00,WUHU21623XXSP,2013-04-15 17:00:00,
2013-04-15 12:05:00,59.2,47.8,29.88,North,0,0.0,0.0,66,0.00,,,0.00,WUHU21623XXSP,2013-04-15 17:05:00,
2013-04-15 12:10:00,58.8,47.0,29.88,North,0,0.0,0.0,65,0.00,,,0.00,WUHU21623XXSP,2013-04-15 17:10:00,
2013-04-15 12:15:00,58.8,47.0,29.88,North,0,0.0,0.0,65,0.00,,,0.00,WUHU21623XXSP,2013-04-15 17:15:00,
2013-04-15 12:21:00,58.8,47.0,29.88,North,0,0.0,0.0,65,0.00,,,0.00,WUHU21623XXSP,2013-04-15 17:21:00,
2013-04-15 12:24:00,59.2,47.4,29.88,North,0,0.0,0.0,65,0.00,,,0.00,WUHU21623XXSP,2013-04-15 17:24:00,
2013-04-15 12:26:00,59.2,47.4,29.88,North,0,0.0,0.0,65,0.00,,,0.00,WUHU21623XXSP,2013-04-15 17:26:00,
2013-04-15 12:31:00,58.8,47.0,29.88,North,0,0.0,0.0,65,0.00,,,0.00,WUHU21623XXSP,2013-04-15 17:31:00,
2013-04-15 12:36:00,59.2,47.8,29.88,North,0,0.0,0.0,66,0.00,,,0.00,WUHU21623XXSP,2013-04-15 17:36:00,
2013-04-15 12:41:00,58.8,47.0,29.88,North,0,0.0,0.0,65,0.00,,,0.00,WUHU21623XXSP,2013-04-15 17:41:00,
2013-04-15 12:46:00,58.8,47.4,29.88,North,0,0.0,0.0,66,0.00,,,0.00,WUHU21623XXSP,2013-04-15 17:46:00,
2013-04-15 12:51:00,58.8,47.4,29.88,North,0,0.0,0.0,66,0.00,,,0.00,WUHU21623XXSP,2013-04-15 17:51:00,
2013-04-15 12:57:00,58.8,47.4,29.88,North,0,0.0,0.0,66,0.00,,,0.00,WUHU21623XXSP,2013-04-15 17:57:00,
2013-04-15 13:02:00,58.8,47.4,29.87,North,0,0.0,0.0,66,0.00,,,0.00,WUHU21623XXSP,2013-04-15 18:02:00,
2013-04-15 13:07:00,58.8,47.4,29.87,North,0,0.0,0.0,66,0.00,,,0.00,WUHU21623XXSP,2013-04-15 18:07:00,
2013-04-15 13:12:00,58.8,47.4,29.87,North,0,0.0,0.0,66,0.00,,,0.00,WUHU21623XXSP,2013-04-15 18:12:00,
2013-04-15 13:17:00,58.8,47.4,29.88,North,0,0.0,0.0,66,0.00,,,0.00,WUHU21623XXSP,2013-04-15 18:17:00,
2013-04-15 13:22:00,58.3,46.9,29.87,North,0,0.0,0.0,66,0.00,,,0.00,WUHU21623XXSP,2013-04-15 18:22:00,
2013-04-15 13:27:00,58.3,46.9,29.87,North,0,0.0,0.0,66,0.00,,,0.00,WUHU21623XXSP,2013-04-15 18:27:00,
2013-04-15 13:30:00,58.3,46.9,29.87,North,0,0.0,0.0,66,0.00,,,0.00,WUHU21623XXSP,2013-04-15 18:30:00,
2013-04-15 13:32:00,58.5,46.9,29.87,North,0,0.0,0.0,66,0.00,,,0.00,WUHU21623XXSP,2013-04-15 18:32:00,
2013-04-15 13:35:00,58.5,47.1,29.87,North,0,0.0,0.0,66,0.00,,,0.00,WUHU21623XXSP,2013-04-15 18:35:00,
2013-04-15 13:40:00,58.5,47.1,29.87,North,0,0.0,0.0,66,0.00,,,0.00,WUHU21623XXSP,2013-04-15 18:40:00,
2013-04-15 13:42:00,58.5,47.1,29.86,North,0,0.0,0.0,66,0.00,,,0.00,WUHU21623XXSP,2013-04-15 18:42:00,
2013-04-15 13:47:00,58.6,47.7,29.86,North,0,0.0,0.0,67,0.00,,,0.00,WUHU21623XXSP,2013-04-15 18:47:00,
2013-04-15 13:52:00,58.3,47.7,29.86,North,0,0.0,0.0,68,0.00,,,0.00,WUHU21623XXSP,2013-04-15 18:52:00,
2013-04-15 13:57:00,58.1,47.7,29.86,North,0,0.0,0.0,68,0.00,,,0.00,WUHU21623XXSP,2013-04-15 18:57:00,
2013-04-15 14:02:00,57.9,47.8,29.87,North,0,0.0,0.0,69,0.00,,,0.00,WUHU21623XXSP,2013-04-15 19:02:00,
2013-04-15 14:07:00,57.6,47.8,29.87,North,0,0.0,0.0,70,0.00,,,0.00,WUHU21623XXSP,2013-04-15 19:07:00,
2013-04-15 14:12:00,57.4,47.7,29.87,North,0,0.0,0.0,70,0.00,,,0.00,WUHU21623XXSP,2013-04-15 19:12:00,
2013-04-15 14:17:00,57.2,47.8,29.87,North,0,0.0,0.0,71,0.00,,,0.00,WUHU21623XXSP,2013-04-15 19:17:00,
2013-04-15 14:22:00,57.0,47.7,29.87,North,0,0.0,0.0,71,0.00,,,0.00,WUHU21623XXSP,2013-04-15 19:22:00,
2013-04-15 14:27:00,57.0,47.7,29.87,North,0,0.0,0.0,71,0.00,,,0.00,WUHU21623XXSP,2013-04-15 19:27:00,
2013-04-15 14:32:00,56.7,47.9,29.87,North,0,0.0,0.0,72,0.00,,,0.00,WUHU21623XXSP,2013-04-15 19:32:00,
2013-04-15 14:37:00,56.3,47.7,29.88,North,0,0.0,0.0,73,0.00,,,0.00,WUHU21623XXSP,2013-04-15 19:37:00,
2013-04-15 14:42:00,56.1,47.6,29.87,North,0,0.0,0.0,73,0.00,,,0.00,WUHU21623XXSP,2013-04-15 19:42:00,
2013-04-15 14:47:00,55.6,47.7,29.87,North,0,0.0,0.0,75,0.00,,,0.00,WUHU21623XXSP,2013-04-15 19:47:00,
2013-04-15 14:52:00,55.0,47.9,29.87,North,0,0.0,0.0,77,0.00,,,0.00,WUHU21623XXSP,2013-04-15 19:52:00,
2013-04-15 14:57:00,54.5,47.8,29.87,North,0,0.0,0.0,78,0.00,,,0.00,WUHU21623XXSP,2013-04-15 19:57:00,
2013-04-15 15:02:00,53.8,47.5,29.87,North,0,0.0,0.0,79,0.00,,,0.00,WUHU21623XXSP,2013-04-15 20:02:00,
2013-04-15 15:05:00,53.4,47.5,29.88,North,0,0.0,0.0,80,0.00,,,0.00,WUHU21623XXSP,2013-04-15 20:05:00,
2013-04-15 15:10:00,53.1,47.1,29.88,North,0,0.0,0.0,80,0.00,,,0.00,WUHU21623XXSP,2013-04-15 20:10:00,
2013-04-15 15:15:00,52.7,47.4,29.88,North,0,0.0,0.0,82,0.00,,,0.00,WUHU21623XXSP,2013-04-15 20:15:00,
2013-04-15 15:20:00,52.3,47.0,29.88,North,0,0.0,0.0,82,0.00,,,0.00,WUHU21623XXSP,2013-04-15 20:20:00,
2013-04-15 15:25:00,52.0,47.0,29.88,North,0,0.0,0.0,83,0.00,,,0.00,WUHU21623XXSP,2013-04-15 20:25:00,
2013-04-15 15:30:00,52.0,47.0,29.88,North,0,0.0,0.0,83,0.00,,,0.00,WUHU21623XXSP,2013-04-15 20:30:00,
2013-04-15 15:35:00,51.6,46.6,29.88,North,0,0.0,0.0,83,0.00,,,0.00,WUHU21623XXSP,2013-04-15 20:35:00,
2013-04-15 15:40:00,51.6,46.9,29.87,North,0,0.0,0.0,84,0.00,,,0.00,WUHU21623XXSP,2013-04-15 20:40:00,
2013-04-15 15:45:00,51.3,46.7,29.87,North,0,0.0,0.0,84,0.00,,,0.00,WUHU21623XXSP,2013-04-15 20:45:00,
2013-04-15 15:50:00,51.1,46.4,29.87,North,0,0.0,0.0,84,0.00,,,0.00,WUHU21623XXSP,2013-04-15 20:50:00,
2013-04-15 15:55:00,50.9,46.5,29.87,North,0,0.0,0.0,85,0.00,,,0.00,WUHU21623XXSP,2013-04-15 20:55:00,
2013-04-15 16:00:00,50.9,46.5,29.87,North,0,0.0,0.0,85,0.00,,,0.00,WUHU21623XXSP,2013-04-15 21:00:00,
2013-04-15 16:05:00,50.9,46.8,29.87,North,0,0.0,0.0,86,0.00,,,0.00,WUHU21623XXSP,2013-04-15 21:05:00,
2013-04-15 16:10:00,50.7,46.6,29.87,North,0,0.0,0.0,86,0.00,,,0.00,WUHU21623XXSP,2013-04-15 21:10:00,
2013-04-15 16:15:00,50.7,46.6,29.87,North,0,0.0,0.0,86,0.00,,,0.00,WUHU21623XXSP,2013-04-15 21:15:00,
2013-04-15 16:20:00,50.7,46.9,29.87,North,0,0.0,0.0,87,0.00,,,0.00,WUHU21623XXSP,2013-04-15 21:20:00,
2013-04-15 16:25:00,50.5,46.7,29.87,North,0,0.0,0.0,87,0.00,,,0.00,WUHU21623XXSP,2013-04-15 21:25:00,
2013-04-15 16:30:00,50.5,46.7,29.87,North,0,0.0,0.0,87,0.00,,,0.00,WUHU21623XXSP,2013-04-15 21:30:00,
2013-04-15 16:35:00,50.4,46.6,29.88,North,0,0.0,0.0,87,0.00,,,0.00,WUHU21623XXSP,2013-04-15 21:35:00,
2013-04-15 16:40:00,50.4,46.6,29.87,North,0,0.0,0.0,88,0.00,,,0.00,WUHU21623XXSP,2013-04-15 21:40:00,
2013-04-15 16:45:00,50.4,46.9,29.87,North,0,0.0,0.0,88,0.00,,,0.00,WUHU21623XXSP,2013-04-15 21:45:00,
2013-04-15 16:50:00,50.4,46.9,29.87,North,0,0.0,0.0,88,0.00,,,0.00,WUHU21623XXSP,2013-04-15 21:50:00,
2013-04-15 16:55:00,50.4,46.9,29.87,North,0,0.0,0.0,88,0.00,,,0.00,WUHU21623XXSP,2013-04-15 21:55:00,
2013-04-15 17:00:00,50.5,47.0,29.87,North,0,0.0,0.0,88,0.00,,,0.00,WUHU21623XXSP,2013-04-15 22:00:00,
2013-04-15 17:05:00,50.5,47.0,29.87,North,0,0.0,0.0,88,0.00,,,0.00,WUHU21623XXSP,2013-04-15 22:05:00,
2013-04-15 17:10:00,50.4,46.9,29.87,North,0,0.0,0.0,88,0.00,,,0.00,WUHU21623XXSP,2013-04-15 22:10:00,
2013-04-15 17:15:00,50.2,46.7,29.87,North,0,0.0,0.0,88,0.00,,,0.00,WUHU21623XXSP,2013-04-15 22:15:00,
2013-04-15 17:20:00,50.2,46.7,29.87,North,0,0.0,0.0,88,0.00,,,0.00,WUHU21623XXSP,2013-04-15 22:20:00,
2013-04-15 17:25:00,50.2,47.0,29.87,North,0,0.0,0.0,89,0.00,,,0.00,WUHU21623XXSP,2013-04-15 22:25:00,
2013-04-15 17:30:00,50.2,47.0,29.87,North,0,0.0,0.0,89,0.00,,,0.00,WUHU21623XXSP,2013-04-15 22:30:00,
2013-04-15 17:35:00,50.2,47.0,29.87,North,0,0.0,0.0,89,0.00,,,0.00,WUHU21623XXSP,2013-04-15 22:35:00,
2013-04-15 17:40:00,50.2,47.0,29.87,North,0,0.0,0.0,89,0.00,,,0.00,WUHU21623XXSP,2013-04-15 22:40:00,
2013-04-15 17:45:00,50.4,47.2,29.87,North,0,0.0,0.0,89,0.00,,,0.00,WUHU21623XXSP,2013-04-15 22:45:00,
2013-04-15 17:50:00,50.4,47.2,29.88,North,0,0.0,0.0,89,0.00,,,0.00,WUHU21623XXSP,2013-04-15 22:50:00,
2013-04-15 17:55:00,50.4,46.9,29.88,North,0,0.0,0.0,88,0.00,,,0.00,WUHU21623XXSP,2013-04-15 22:55:00,
2013-04-15 18:00:00,50.4,46.9,29.88,North,0,0.0,0.0,88,0.00,,,0.00,WUHU21623XXSP,2013-04-15 23:00:00,
2013-04-15 18:05:00,50.5,47.0,29.88,North,0,0.0,0.0,88,0.00,,,0.00,WUHU21623XXSP,2013-04-15 23:05:00,
2013-04-15 18:10:00,50.5,47.0,29.89,North,0,0.0,0.0,88,0.00,,,0.00,WUHU21623XXSP,2013-04-15 23:10:00,
2013-04-15 18:15:00,50.5,47.0,29.89,North,0,0.0,0.0,88,0.00,,,0.00,WUHU21623XXSP,2013-04-15 23:15:00,
2013-04-15 18:20:00,50.7,47.2,29.89,North,0,0.0,0.0,88,0.00,,,0.00,WUHU21623XXSP,2013-04-15 23:20:00,
2013-04-15 18:25:00,50.7,47.2,29.88,North,0,0.0,0.0,88,0.00,,,0.00,WUHU21623XXSP,2013-04-15 23:25:00,
2013-04-15 18:30:00,50.7,47.2,29.89,North,0,0.0,0.0,88,0.00,,,0.00,WUHU21623XXSP,2013-04-15 23:30:00,
2013-04-15 18:35:00,50.7,46.9,29.89,North,0,0.0,0.0,87,0.00,,,0.00,WUHU21623XXSP,2013-04-15 23:35:00,
2013-04-15 18:40:00,50.7,46.9,29.89,North,0,0.0,0.0,87,0.00,,,0.00,WUHU21623XXSP,2013-04-15 23:40:00,
2013-04-15 18:45:00,50.9,47.1,29.89,North,0,0.0,0.0,87,0.00,,,0.00,WUHU21623XXSP,2013-04-15 23:45:00,
2013-04-15 18:50:00,50.9,47.1,29.89,North,0,0.0,0.0,86,0.00,,,0.00,WUHU21623XXSP,2013-04-15 23:50:00,
2013-04-15 18:55:00,50.9,46.8,29.89,North,0,0.0,0.0,86,0.00,,,0.00,WUHU21623XXSP,2013-04-15 23:55:00,
2013-04-15 19:00:00,50.9,46.8,29.89,North,0,0.0,0.0,85,0.00,,,0.00,WUHU21623XXSP,2013-04-16 00:00:00,
2013-04-15 19:05:00,51.1,46.7,29.89,North,0,0.0,0.0,85,0.00,,,0.00,WUHU21623XXSP,2013-04-16 00:05:00,
2013-04-15 19:10:00,51.1,46.7,29.89,North,0,0.0,0.0,85,0.00,,,0.00,WUHU21623XXSP,2013-04-16 00:10:00,
2013-04-15 19:15:00,51.1,46.4,29.89,North,0,0.0,0.0,84,0.00,,,0.00,WUHU21623XXSP,2013-04-16 00:15:00,
2013-04-15 19:20:00,51.1,46.4,29.89,North,0,0.0,0.0,84,0.00,,,0.00,WUHU21623XXSP,2013-04-16 00:20:00,
2013-04-15 19:25:00,51.3,46.5,29.90,North,0,0.0,0.0,84,0.00,,,0.00,WUHU21623XXSP,2013-04-16 00:25:00,
2013-04-15 19:30:00,51.1,46.4,29.90,North,0,0.0,0.0,84,0.00,,,0.00,WUHU21623XXSP,2013-04-16 00:30:00,
2013-04-15 19:35:00,51.1,46.4,29.90,North,0,0.0,0.0,84,0.00,,,0.00,WUHU21623XXSP,2013-04-16 00:35:00,
2013-04-15 19:40:00,51.1,46.4,29.91,North,0,0.0,0.0,84,0.00,,,0.00,WUHU21623XXSP,2013-04-16 00:40:00,
2013-04-15 19:45:00,51.1,46.4,29.91,North,0,0.0,0.0,84,0.00,,,0.00,WUHU21623XXSP,2013-04-16 00:45:00,
2013-04-15 19:50:00,50.9,46.2,29.90,North,0,0.0,0.0,84,0.00,,,0.00,WUHU21623XXSP,2013-04-16 00:50:00,
2013-04-15 19:55:00,50.9,46.2,29.90,North,0,0.0,0.0,84,0.00,,,0.00,WUHU21623XXSP,2013-04-16 00:55:00,
2013-04-15 20:00:00,50.7,46.3,29.91,North,0,0.0,0.0,85,0.00,,,0.00,WUHU21623XXSP,2013-04-16 01:00:00,
2013-04-15 20:05:00,50.5,46.1,29.92,North,0,0.0,0.0,85,0.00,,,0.00,WUHU21623XXSP,2013-04-16 01:05:00,
2013-04-15 20:10:00,50.5,46.1,29.92,North,0,0.0,0.0,85,0.00,,,0.00,WUHU21623XXSP,2013-04-16 01:10:00,
2013-04-15 20:15:00,50.5,46.1,29.92,North,0,0.0,0.0,85,0.00,,,0.00,WUHU21623XXSP,2013-04-16 01:15:00,
2013-04-15 20:21:00,50.5,46.1,29.92,North,0,0.0,0.0,85,0.00,,,0.00,WUHU21623XXSP,2013-04-16 01:21:00,
2013-04-15 20:26:00,50.4,46.0,29.91,North,0,0.0,0.0,85,0.00,,,0.00,WUHU21623XXSP,2013-04-16 01:26:00,
2013-04-15 20:31:00,50.4,45.6,29.92,North,0,0.0,0.0,84,0.00,,,0.00,WUHU21623XXSP,2013-04-16 01:31:00,
2013-04-15 20:36:00,50.4,45.6,29.92,North,0,0.0,0.0,84,0.00,,,0.00,WUHU21623XXSP,2013-04-16 01:36:00,
2013-04-15 20:41:00,50.4,45.6,29.92,North,0,0.0,0.0,83,0.00,,,0.00,WUHU21623XXSP,2013-04-16 01:41:00,
2013-04-15 20:46:00,50.4,45.3,29.93,North,0,0.0,0.0,83,0.00,,,0.00,WUHU21623XXSP,2013-04-16 01:46:00,
2013-04-15 20:51:00,50.4,45.3,29.93,North,0,0.0,0.0,83,0.00,,,0.00,WUHU21623XXSP,2013-04-16 01:51:00,
2013-04-15 20:56:00,50.2,44.9,29.92,North,0,0.0,0.0,82,0.00,,,0.00,WUHU21623XXSP,2013-04-16 01:56:00,
2013-04-15 21:01:00,50.2,44.9,29.93,North,0,0.0,0.0,82,0.00,,,0.00,WUHU21623XXSP,2013-04-16 02:01:00,
2013-04-15 21:06:00,50.2,44.9,29.93,North,0,0.0,0.0,82,0.00,,,0.00,WUHU21623XXSP,2013-04-16 02:06:00,
2013-04-15 21:11:00,50.2,44.9,29.93,North,0,0.0,0.0,82,0.00,,,0.00,WUHU21623XXSP,2013-04-16 02:11:00,
2013-04-15 21:16:00,50.2,44.9,29.95,North,0,0.0,0.0,82,0.00,,,0.00,WUHU21623XXSP,2013-04-16 02:16:00,
2013-04-15 21:21:00,50.2,44.9,29.93,North,0,0.0,0.0,82,0.00,,,0.00,WUHU21623XXSP,2013-04-16 02:21:00,
2013-04-15 21:26:00,50.0,44.7,29.94,North,0,0.0,0.0,82,0.00,,,0.00,WUHU21623XXSP,2013-04-16 02:26:00,
2013-04-15 21:31:00,49.6,44.3,29.93,North,0,0.0,0.0,82,0.00,,,0.00,WUHU21623XXSP,2013-04-16 02:31:00,
2013-04-15 21:36:00,49.6,44.6,29.93,North,0,0.0,0.0,83,0.00,,,0.00,WUHU21623XXSP,2013-04-16 02:36:00,
2013-04-15 21:41:00,49.3,44.3,29.93,North,0,0.0,0.0,83,0.00,,,0.00,WUHU21623XXSP,2013-04-16 02:41:00,
2013-04-15 21:46:00,49.3,44.3,29.93,North,0,0.0,0.0,83,0.00,,,0.00,WUHU21623XXSP,2013-04-16 02:46:00,
2013-04-15 21:51:00,49.1,44.1,29.93,North,0,0.0,0.0,83,0.00,,,0.00,WUHU21623XXSP,2013-04-16 02:51:00,
2013-04-15 21:56:00,49.1,44.3,29.93,North,0,0.0,0.0,83,0.00,,,0.00,WUHU21623XXSP,2013-04-16 02:56:00,
2013-04-15 22:01:00,49.1,44.1,29.94,North,0,0.0,0.0,83,0.00,,,0.00,WUHU21623XXSP,2013-04-16 03:01:00,
2013-04-15 22:06:00,49.1,44.1,29.94,North,0,0.0,0.0,84,0.00,,,0.00,WUHU21623XXSP,2013-04-16 03:06:00,
2013-04-15 22:11:00,48.6,43.9,29.94,North,0,0.0,0.0,84,0.00,,,0.00,WUHU21623XXSP,2013-04-16 03:11:00,
2013-04-15 22:16:00,47.8,43.8,29.93,North,0,0.0,0.0,86,0.00,,,0.00,WUHU21623XXSP,2013-04-16 03:16:00,
2013-04-15 22:21:00,47.5,43.5,29.93,North,0,0.0,0.0,86,0.00,,,0.00,WUHU21623XXSP,2013-04-16 03:21:00,
2013-04-15 22:26:00,47.3,44.0,29.94,North,0,0.0,0.0,88,0.00,,,0.00,WUHU21623XXSP,2013-04-16 03:26:00,
2013-04-15 22:31:00,47.1,44.1,29.91,North,0,0.0,0.0,89,0.00,,,0.00,WUHU21623XXSP,2013-04-16 03:31:00,
2013-04-15 22:36:00,46.9,43.8,29.98,North,0,0.0,0.0,89,0.00,,,0.00,WUHU21623XXSP,2013-04-16 03:36:00,
2013-04-15 22:41:00,46.6,43.5,30.01,North,0,0.0,0.0,89,0.00,,,0.00,WUHU21623XXSP,2013-04-16 03:41:00,
2013-04-15 22:46:00,45.7,42.4,29.97,North,0,0.0,0.0,88,0.00,,,0.00,WUHU21623XXSP,2013-04-16 03:46:00,
2013-04-15 22:51:00,45.3,42.0,29.97,North,0,0.0,0.0,88,0.00,,,0.00,WUHU21623XXSP,2013-04-16 03:51:00,
2013-04-15 22:56:00,45.1,42.1,29.97,North,0,0.0,0.0,89,0.00,,,0.00,WUHU21623XXSP,2013-04-16 03:56:00,
2013-04-15 23:01:00,45.1,42.1,29.97,North,0,0.0,0.0,89,0.00,,,0.00,WUHU21623XXSP,2013-04-16 04:01:00,
2013-04-15 23:04:00,45.1,42.1,29.96,North,0,0.0,0.0,89,0.00,,,0.00,WUHU21623XXSP,2013-04-16 04:04:00,
2013-04-15 23:06:00,45.1,42.1,29.96,North,0,0.0,0.0,89,0.00,,,0.00,WUHU21623XXSP,2013-04-16 04:06:00,
2013-04-15 23:11:00,44.8,41.8,29.97,North,0,0.0,0.0,89,0.00,,,0.00,WUHU21623XXSP,2013-04-16 04:11:00,
2013-04-15 23:16:00,44.6,41.5,29.97,North,0,0.0,0.0,89,0.00,,,0.00,WUHU21623XXSP,2013-04-16 04:16:00,
2013-04-15 23:19:00,44.6,41.5,29.97,North,0,0.0,0.0,89,0.00,,,0.00,WUHU21623XXSP,2013-04-16 04:19:00,
2013-04-15 23:24:00,45.0,41.8,29.97,North,0,0.0,0.0,89,0.00,,,0.00,WUHU21623XXSP,2013-04-16 04:24:00,
2013-04-15 23:29:00,45.0,42.0,30.00,North,0,0.0,0.0,89,0.00,,,0.00,WUHU21623XXSP,2013-04-16 04:29:00,
2013-04-15 23:34:00,45.0,42.0,29.99,North,0,0.0,0.0,89,0.00,,,0.00,WUHU21623XXSP,2013-04-16 04:34:00,
2013-04-15 23:39:00,45.0,42.0,29.98,North,0,0.0,0.0,89,0.00,,,0.00,WUHU21623XXSP,2013-04-16 04:39:00,
2013-04-15 23:44:00,45.0,42.0,29.99,North,0,0.0,0.0,89,0.00,,,0.00,WUHU21623XXSP,2013-04-16 04:44:00,
2013-04-15 23:49:00,44.8,41.5,30.00,North,0,0.0,0.0,88,0.00,,,0.00,WUHU21623XXSP,2013-04-16 04:49:00,
2013-04-15 23:54:00,44.6,41.5,30.00,North,0,0.0,0.0,88,0.00,,,0.00,WUHU21623XXSP,2013-04-16 04:54:00,
2013-04-15 23:59:00,44.4,41.1,30.01,North,0,0.0,0.0,88,0.00,,,0.00,WUHU21623XXSP,2013-04-16 04:59:00,